Bavaria

Go HERE for most recent data if this page is not up to date.

Jump to table bottom
Date Time Temp F RH % AVG Wind Max Wind Wind Dir 24 Snow Depth
*02/21/20 23 20.6 35 14 20 SW - 235 0.2 84.2
*02/21/20 22 19.7 34 11 18 W - 277 0.2 84.2
*02/21/20 21 20.3 31 13 19 SW - 238 0.1 84.1
*02/21/20 20 21.6 31 14 19 W - 257 0.1 84.3
*02/21/20 19 22.3 29 10 16 SW - 241 0.1 84.1
*02/21/20 18 22.8 28 13 20 W - 258 0.0 83.9
*02/21/20 17 25.7 23 10 18 W - 258 -0.0 83.8
*02/21/20 16 26.2 21 11 18 SW - 246 -0.0 84.0
*02/21/20 15 26.9 18 10 17 SW - 246 -0.0 84.0
*02/21/20 14 26.5 22 11 18 SW - 218 -0.2 85.0
*02/21/20 13 28.0 25 9 16 SW - 226 -0.1 85.0
*02/21/20 12 26.5 29 9 15 W - 255 -0.2 84.9
*02/21/20 11 25.6 21 10 16 SW - 229 -0.1 84.8
*02/21/20 10 24.2 17 10 18 SW - 241 -0.0 85.1
*02/21/20 09 24.1 14 10 17 W - 258 0.0 85.1
*02/21/20 08 22.6 12 15 21 W - 256 0.1 85.3
*02/21/20 07 22.0 11 15 20 SW - 230 0.0 85.3
*02/21/20 06 22.1 10 16 21 W - 258 0.1 85.4
*02/21/20 05 22.1 9 17 22 W - 248 0.1 85.3
*02/21/20 04 21.4 10 17 22 SW - 236 0.0 -12.1
*02/21/20 03 22.5 9 15 19 W - 262 0.2 -12.3
*02/21/20 02 23.3 10 15 22 SW - 238 0.2 -11.2
*02/21/20 01 20.4 11 3 11 SW - 242 0.2 -11.1
*02/21/20 00 21.1 11 8 14 SW - 217 0.0 -11.6
*02/20/20 23 22.2 11 9 14 W - 290 0.2 85.8
*02/20/20 22 21.8 11 7 14 W - 248 0.2 85.8
*02/20/20 21 20.0 17 7 10 W - 276 0.1 -11.5
*02/20/20 20 20.2 19 8 11 W - 248 0.1 -11.8
*02/20/20 19 20.9 19 11 19 W - 275 0.1 -12.3
*02/20/20 18 21.7 19 12 16 SW - 247 0.0 -13.0
*02/20/20 17 22.1 23 11 17 SW - 238 -0.0 151.3
*02/20/20 16 25.4 20 9 15 W - 257 -0.1 151.3
*02/20/20 15 26.2 23 10 16 S - 197 -0.1 86.4
*02/20/20 14 26.5 23 7 13 W - 255 -0.2 87.3
*02/20/20 13 31.9 25 8 14 SW - 236 -0.2 151.3
*02/20/20 12 23.5 25 6 15 SW - 236 -0.2 151.3
*02/20/20 11 22.3 31 6 11 N - 14 -0.2 151.3
*02/20/20 10 20.0 30 8 12 W - 264 -0.0 151.3
*02/20/20 09 19.2 30 6 9 N - 12 -0.1 87.1
*02/20/20 08 16.6 32 6 10 SW - 240 0.0 87.4
*02/20/20 07 15.8 33 8 12 NW - 293 0.2 87.5
*02/20/20 06 13.6 38 8 12 W - 257 0.0 87.2
*02/20/20 05 14.1 38 7 9 W - 277 0.2 87.1
*02/20/20 04 13.7 40 9 13 W - 285 0.1 -10.2
*02/20/20 03 13.1 40 9 11 N - 10 0.2 -9.9
*02/20/20 02 12.4 39 10 13 NW - 300 0.2 -9.8
*02/20/20 01 10.9 38 11 14 W - 290 0.2 -9.9
*02/20/20 00 10.1 45 13 16 NW - 298 0.2 -9.9
.